createdAt,value
2023-05-16T00:01:46.225Z,48.91
2023-05-16T00:04:13.664Z,48.72
2023-05-16T00:06:41.374Z,48.67
2023-05-16T00:09:08.907Z,48.92
2023-05-16T00:11:36.471Z,48.76
2023-05-16T00:14:03.875Z,48.65
2023-05-16T00:16:31.560Z,48.62
2023-05-16T00:18:59.835Z,48.85
2023-05-16T00:21:27.487Z,48.89
2023-05-16T00:23:54.976Z,48.82
2023-05-16T00:26:22.596Z,48.95
2023-05-16T00:28:49.912Z,48.70
2023-05-16T00:31:17.634Z,48.79
2023-05-16T00:33:45.020Z,48.73
2023-05-16T00:36:12.669Z,48.71
2023-05-16T00:38:40.532Z,48.96
2023-05-16T00:41:08.067Z,48.86
2023-05-16T00:43:35.322Z,48.96
2023-05-16T00:46:02.958Z,48.74
2023-05-16T00:48:30.279Z,48.88
2023-05-16T00:50:58.201Z,48.71
2023-05-16T00:53:25.835Z,48.74
2023-05-16T00:55:53.520Z,48.92
2023-05-16T00:58:22.734Z,48.78
2023-05-16T01:00:50.507Z,48.77
2023-05-16T01:03:18.470Z,48.83
2023-05-16T01:05:46.949Z,48.78
2023-05-16T01:08:14.287Z,48.87
2023-05-16T01:11:05.291Z,48.87
2023-05-16T01:13:48.517Z,48.86
2023-05-16T01:16:31.390Z,49.04
2023-05-16T01:19:20.681Z,48.96
2023-05-16T01:21:52.983Z,49.01
2023-05-16T01:24:32.531Z,48.85
2023-05-16T01:27:00.664Z,48.81
2023-05-16T01:29:27.989Z,48.86
2023-05-16T01:31:55.547Z,48.85
2023-05-16T01:34:22.903Z,48.82
2023-05-16T01:37:25.660Z,48.84
2023-05-16T01:40:12.815Z,48.83
2023-05-16T01:42:45.566Z,49.08
2023-05-16T01:45:23.611Z,48.94
2023-05-16T01:48:02.039Z,48.99
2023-05-16T01:50:34.190Z,48.96
2023-05-16T01:53:11.306Z,48.95
2023-05-16T01:55:45.867Z,49.03
2023-05-16T01:58:15.310Z,49.12
2023-05-16T02:00:43.473Z,48.91
2023-05-16T02:03:11.241Z,48.98
2023-05-16T02:05:38.751Z,48.84
2023-05-16T02:08:06.462Z,48.98
2023-05-16T02:10:33.739Z,48.97
2023-05-16T02:13:01.256Z,48.94
2023-05-16T02:15:28.749Z,48.95
2023-05-16T02:17:56.661Z,48.89
2023-05-16T02:20:23.960Z,48.78
2023-05-16T02:22:51.539Z,49.09
2023-05-16T02:25:19.200Z,48.85
2023-05-16T02:27:46.724Z,48.99
2023-05-16T02:30:14.013Z,48.89
2023-05-16T02:32:45.078Z,48.96
2023-05-16T02:35:12.596Z,48.94
2023-05-16T02:37:41.019Z,48.95
2023-05-16T02:40:09.356Z,48.90
2023-05-16T02:42:37.069Z,48.98
2023-05-16T02:45:04.822Z,48.87
2023-05-16T02:47:32.449Z,48.91
2023-05-16T02:49:59.850Z,48.91
2023-05-16T02:52:27.673Z,48.97
2023-05-16T02:55:10.011Z,48.92
2023-05-16T02:57:43.792Z,48.88
2023-05-16T03:00:11.822Z,48.79
2023-05-16T03:02:39.524Z,48.94
2023-05-16T03:05:07.286Z,48.90
2023-05-16T03:07:34.814Z,48.81
2023-05-16T03:10:02.130Z,48.86
2023-05-16T03:12:29.911Z,48.78
2023-05-16T03:14:57.315Z,48.86
2023-05-16T03:17:24.788Z,48.80
2023-05-16T03:19:52.176Z,48.96
2023-05-16T03:22:20.498Z,48.93
2023-05-16T03:24:47.999Z,48.80
2023-05-16T03:27:16.016Z,48.82
2023-05-16T03:29:43.323Z,48.79
2023-05-16T03:32:11.784Z,48.87
2023-05-16T03:34:39.080Z,48.92
2023-05-16T03:37:06.841Z,48.90
2023-05-16T03:39:34.177Z,48.69
2023-05-16T03:42:01.721Z,48.79
2023-05-16T03:44:29.002Z,48.64
2023-05-16T03:46:56.534Z,48.77
2023-05-16T03:49:30.033Z,48.74
2023-05-16T03:51:57.646Z,48.63
2023-05-16T03:54:24.859Z,48.68
2023-05-16T03:56:52.715Z,48.77
2023-05-16T03:59:20.023Z,48.78
2023-05-16T04:01:47.869Z,48.75
2023-05-16T04:04:15.332Z,48.84
2023-05-16T04:06:43.016Z,48.77
2023-05-16T04:09:10.246Z,48.80
2023-05-16T04:11:38.744Z,48.73
2023-05-16T04:14:06.154Z,48.65
2023-05-16T04:16:33.954Z,48.63
2023-05-16T04:19:01.309Z,48.88
2023-05-16T04:21:28.866Z,48.75
2023-05-16T04:23:57.564Z,48.77
2023-05-16T04:26:25.635Z,48.73
2023-05-16T04:28:53.226Z,48.75
2023-05-16T04:31:21.945Z,48.87
2023-05-16T04:33:49.533Z,48.73
2023-05-16T04:36:17.059Z,48.75
2023-05-16T04:38:44.340Z,48.73
2023-05-16T04:41:11.816Z,48.68
2023-05-16T04:43:40.140Z,48.71
2023-05-16T04:46:07.859Z,48.68
2023-05-16T04:48:35.118Z,48.82
2023-05-16T04:51:03.056Z,48.67
2023-05-16T04:53:30.359Z,48.71
2023-05-16T04:55:57.881Z,48.60
2023-05-16T04:58:25.192Z,48.66
2023-05-16T05:00:53.234Z,48.63
2023-05-16T05:03:20.742Z,48.60
2023-05-16T05:05:48.583Z,48.57
2023-05-16T05:08:16.501Z,48.53
2023-05-16T05:10:43.971Z,48.46
2023-05-16T05:13:11.639Z,48.42
2023-05-16T05:15:39.104Z,48.27
2023-05-16T05:18:06.581Z,48.34
2023-05-16T05:20:34.590Z,48.14
2023-05-16T05:23:02.342Z,48.10
2023-05-16T05:25:30.086Z,48.29
2023-05-16T05:27:58.063Z,48.29
2023-05-16T05:30:25.562Z,48.18
2023-05-16T05:32:53.737Z,48.24
2023-05-16T05:35:21.296Z,48.32
2023-05-16T05:37:48.787Z,48.17
2023-05-16T05:40:16.336Z,48.08
2023-05-16T05:42:46.155Z,48.06
2023-05-16T05:45:15.957Z,48.04
2023-05-16T05:47:44.160Z,48.10
2023-05-16T05:50:16.198Z,48.42
2023-05-16T05:52:43.625Z,48.52
2023-05-16T05:55:11.210Z,48.42
2023-05-16T05:57:39.147Z,48.56
2023-05-16T06:00:07.309Z,48.47
2023-05-16T06:02:35.185Z,48.43
2023-05-16T06:05:02.927Z,48.53
2023-05-16T06:07:30.215Z,48.32
2023-05-16T06:09:57.786Z,48.41
2023-05-16T06:12:25.032Z,48.35
2023-05-16T06:14:52.493Z,48.37
2023-05-16T06:17:19.940Z,48.31
2023-05-16T06:19:47.612Z,48.32
2023-05-16T06:22:14.861Z,48.31
2023-05-16T06:24:43.010Z,48.27
2023-05-16T06:27:10.330Z,48.14
2023-05-16T06:29:38.010Z,48.44
2023-05-16T06:32:05.528Z,48.17
2023-05-16T06:34:33.088Z,48.21
2023-05-16T06:37:00.805Z,48.35
2023-05-16T06:39:28.323Z,48.31
2023-05-16T06:41:56.697Z,48.24
2023-05-16T06:44:24.468Z,48.28
2023-05-16T06:46:51.885Z,48.17
2023-05-16T06:49:19.429Z,48.07
2023-05-16T06:51:46.837Z,48.23
2023-05-16T06:54:14.369Z,48.22
2023-05-16T06:56:41.850Z,48.12
2023-05-16T06:59:09.418Z,48.29
2023-05-16T07:01:36.861Z,48.16
2023-05-16T07:04:04.874Z,48.11
2023-05-16T07:06:32.404Z,48.01
2023-05-16T07:08:59.980Z,47.94
2023-05-16T07:11:27.380Z,48.20
2023-05-16T07:13:54.937Z,48.17
2023-05-16T07:16:22.460Z,48.17
2023-05-16T07:18:50.198Z,48.07
2023-05-16T07:21:17.567Z,48.10
2023-05-16T07:23:45.057Z,48.18
2023-05-16T07:26:12.804Z,48.09
2023-05-16T07:28:40.326Z,48.22
2023-05-16T07:31:08.350Z,48.17
2023-05-16T07:33:36.335Z,48.12
2023-05-16T07:36:15.536Z,48.20
2023-05-16T07:38:45.137Z,48.24
2023-05-16T07:41:12.637Z,48.16
2023-05-16T07:43:40.257Z,48.13
2023-05-16T07:46:08.190Z,48.15
2023-05-16T07:48:37.351Z,48.16
2023-05-16T07:51:04.876Z,48.17
2023-05-16T07:53:32.500Z,48.21
2023-05-16T07:56:00.295Z,48.35
2023-05-16T07:58:28.149Z,48.27
2023-05-16T08:00:55.457Z,48.09
2023-05-16T08:03:23.326Z,48.07
2023-05-16T08:05:51.735Z,48.30
2023-05-16T08:08:19.933Z,48.39
2023-05-16T08:10:47.305Z,48.38
2023-05-16T08:13:14.890Z,48.45
2023-05-16T08:15:42.575Z,48.08
2023-05-16T08:18:15.037Z,48.26
2023-05-16T08:20:42.725Z,48.00
2023-05-16T08:23:10.319Z,48.01
2023-05-16T08:25:37.769Z,48.07
2023-05-16T08:28:05.343Z,47.95
2023-05-16T08:30:32.690Z,47.76
2023-05-16T08:33:04.790Z,47.91
2023-05-16T08:35:32.655Z,47.87
2023-05-16T08:38:00.441Z,47.43
2023-05-16T08:40:28.646Z,47.55
2023-05-16T08:42:56.657Z,47.93
2023-05-16T08:45:24.619Z,47.60
2023-05-16T08:47:56.414Z,47.55
2023-05-16T08:50:24.927Z,47.64
2023-05-16T08:52:54.059Z,47.38
2023-05-16T08:55:22.332Z,47.45
2023-05-16T08:57:51.616Z,47.50
2023-05-16T09:00:19.656Z,47.59
2023-05-16T09:02:47.471Z,47.65
2023-05-16T09:05:16.463Z,47.45
2023-05-16T09:07:45.601Z,47.51
2023-05-16T09:10:13.324Z,47.64
2023-05-16T09:12:42.172Z,47.28
2023-05-16T09:15:11.309Z,47.52
2023-05-16T09:17:43.432Z,47.24
2023-05-16T09:20:20.627Z,47.23
2023-05-16T09:22:59.407Z,47.24
2023-05-16T09:25:31.448Z,46.87
2023-05-16T09:28:02.359Z,46.96
2023-05-16T09:30:33.857Z,46.49
2023-05-16T09:33:02.130Z,46.66
2023-05-16T09:38:00.591Z,46.59
2023-05-16T09:40:27.893Z,46.72
2023-05-16T09:43:06.928Z,46.70
2023-05-16T09:45:36.497Z,45.92
2023-05-16T09:48:09.114Z,45.91
2023-05-16T09:50:37.703Z,46.61
2023-05-16T09:53:05.748Z,46.52
2023-05-16T09:55:33.384Z,46.38
2023-05-16T09:58:01.222Z,46.26
2023-05-16T10:00:33.609Z,46.37
2023-05-16T10:03:05.107Z,45.94
2023-05-16T10:05:33.709Z,45.46
2023-05-16T10:08:02.913Z,45.33
2023-05-16T10:10:31.815Z,45.76
2023-05-16T10:13:02.154Z,45.44
2023-05-16T10:15:30.309Z,45.96
2023-05-16T10:18:00.578Z,45.89
2023-05-16T10:20:28.461Z,46.12
2023-05-16T10:22:58.748Z,46.03
2023-05-16T10:25:32.381Z,46.11
2023-05-16T10:28:00.992Z,46.15
2023-05-16T10:30:28.697Z,46.08
2023-05-16T10:32:56.970Z,46.03
2023-05-16T10:35:24.838Z,45.94
2023-05-16T10:37:53.303Z,45.96
2023-05-16T10:40:22.041Z,46.04
2023-05-16T10:43:00.328Z,45.96
2023-05-16T10:45:28.057Z,45.98
2023-05-16T10:47:59.079Z,45.98
2023-05-16T10:50:44.183Z,46.09
2023-05-16T10:53:32.596Z,46.08
2023-05-16T10:55:59.911Z,46.17
2023-05-16T10:58:33.939Z,46.16
2023-05-16T11:01:20.864Z,46.17
2023-05-16T11:04:00.659Z,46.01
2023-05-16T11:06:43.367Z,46.04
2023-05-16T11:09:11.152Z,46.03
2023-05-16T11:11:58.469Z,46.27
2023-05-16T11:14:32.514Z,46.26
2023-05-16T11:17:14.259Z,46.22
2023-05-16T11:19:49.001Z,46.27
2023-05-16T11:22:27.244Z,46.40
2023-05-16T11:24:59.096Z,46.38
2023-05-16T11:27:37.683Z,46.57
2023-05-16T11:30:05.226Z,46.36
2023-05-16T11:32:37.851Z,46.38
2023-05-16T11:35:08.847Z,46.39
2023-05-16T11:37:36.713Z,46.23
2023-05-16T11:40:07.025Z,46.44
2023-05-16T11:42:40.219Z,46.32
2023-05-16T11:45:09.691Z,46.26
2023-05-16T11:47:38.875Z,46.46
2023-05-16T11:50:10.829Z,46.36
2023-05-16T11:52:38.883Z,46.43
2023-05-16T11:55:08.124Z,46.47
2023-05-16T11:57:35.651Z,46.50
2023-05-16T12:00:25.144Z,46.47
2023-05-16T12:02:54.710Z,46.44
2023-05-16T12:05:27.329Z,46.45
2023-05-16T12:07:56.731Z,46.41
2023-05-16T12:10:24.303Z,46.47
2023-05-16T12:12:52.870Z,46.50
2023-05-16T12:15:21.536Z,46.38
2023-05-16T12:17:49.380Z,46.54
2023-05-16T12:20:17.443Z,46.27
2023-05-16T12:22:46.083Z,46.45
2023-05-16T12:25:36.054Z,46.44
2023-05-16T12:28:04.891Z,46.50
2023-05-16T12:30:33.004Z,46.43
2023-05-16T12:33:07.661Z,46.31
2023-05-16T12:35:38.812Z,46.53
2023-05-16T12:38:11.647Z,46.46
2023-05-16T12:40:40.905Z,46.35
2023-05-16T12:43:14.970Z,46.53
2023-05-16T12:45:45.792Z,46.42
2023-05-16T12:48:14.232Z,46.30
2023-05-16T12:50:42.057Z,46.28
2023-05-16T12:53:14.412Z,46.43
2023-05-16T12:55:43.579Z,46.36
2023-05-16T12:58:11.492Z,46.33
2023-05-16T13:00:39.376Z,46.38
2023-05-16T13:03:07.771Z,46.43
2023-05-16T13:05:36.352Z,46.41
2023-05-16T13:08:04.376Z,46.29
2023-05-16T13:10:32.052Z,46.34
2023-05-16T13:13:00.320Z,46.32
2023-05-16T13:15:28.592Z,46.43
2023-05-16T13:17:56.322Z,46.32
2023-05-16T13:20:23.903Z,46.42
2023-05-16T13:22:51.232Z,46.33
2023-05-16T13:25:18.896Z,46.23
2023-05-16T13:27:46.396Z,46.46
2023-05-16T13:30:14.028Z,46.30
2023-05-16T13:32:42.431Z,46.31
2023-05-16T13:35:10.344Z,46.34
2023-05-16T13:37:39.397Z,46.26
2023-05-16T13:40:10.367Z,46.24
2023-05-16T13:42:38.728Z,46.27
2023-05-16T13:45:07.037Z,46.32
2023-05-16T13:47:34.531Z,46.22
2023-05-16T13:50:09.185Z,46.23
2023-05-16T13:52:38.101Z,46.27
2023-05-16T13:55:07.223Z,46.24
2023-05-16T13:57:34.756Z,46.20
2023-05-16T14:02:40.563Z,46.02
2023-05-16T14:05:09.465Z,46.04
2023-05-16T14:07:36.865Z,46.09
2023-05-16T14:10:06.829Z,46.07
2023-05-16T14:12:34.337Z,45.99
2023-05-16T14:15:02.064Z,45.96
2023-05-16T14:17:29.540Z,45.98
2023-05-16T14:19:57.338Z,45.87
2023-05-16T14:22:24.634Z,45.79
2023-05-16T14:24:52.183Z,45.79
2023-05-16T14:27:21.569Z,45.90
2023-05-16T14:29:49.059Z,45.79
2023-05-16T14:32:16.651Z,45.89
2023-05-16T14:34:44.513Z,45.67
2023-05-16T14:37:12.129Z,45.80
2023-05-16T14:39:41.910Z,45.77
2023-05-16T14:42:09.172Z,45.82
2023-05-16T14:44:36.714Z,45.68
2023-05-16T14:47:04.468Z,45.88
2023-05-16T14:49:32.372Z,45.84
2023-05-16T14:51:59.983Z,45.79
2023-05-16T14:54:27.505Z,45.96
2023-05-16T14:56:55.732Z,45.95
2023-05-16T14:59:23.336Z,45.89
2023-05-16T15:01:50.801Z,45.94
2023-05-16T15:04:18.819Z,45.93
2023-05-16T15:06:46.227Z,45.92
2023-05-16T15:09:14.032Z,46.01
2023-05-16T15:11:41.563Z,45.95
2023-05-16T15:14:12.099Z,46.03
2023-05-16T15:16:39.529Z,46.01
2023-05-16T15:19:07.203Z,45.90
2023-05-16T15:21:34.507Z,45.95
2023-05-16T15:24:02.428Z,46.09
2023-05-16T15:26:29.969Z,46.08
2023-05-16T15:28:57.516Z,46.04
2023-05-16T15:31:24.966Z,46.10
2023-05-16T15:33:52.705Z,46.10
2023-05-16T15:36:20.026Z,46.18
2023-05-16T15:38:47.661Z,46.16
2023-05-16T15:41:26.895Z,46.08
2023-05-16T15:44:03.492Z,46.17
2023-05-16T15:46:33.123Z,46.22
2023-05-16T15:49:01.153Z,46.28
2023-05-16T15:51:28.462Z,46.24
2023-05-16T15:53:56.145Z,46.42
2023-05-16T15:56:23.547Z,46.48
2023-05-16T15:58:51.588Z,46.47
2023-05-16T16:01:19.239Z,46.52
2023-05-16T16:03:47.104Z,46.71
2023-05-16T16:06:24.604Z,46.67
2023-05-16T16:08:52.527Z,46.75
2023-05-16T16:11:23.459Z,46.72
2023-05-16T16:13:51.396Z,46.83
2023-05-16T16:16:18.925Z,46.90
2023-05-16T16:18:46.714Z,46.95
2023-05-16T16:21:14.164Z,46.93
2023-05-16T16:23:42.574Z,47.04
2023-05-16T16:26:09.978Z,47.08
2023-05-16T16:28:37.649Z,46.95
2023-05-16T16:31:05.155Z,47.13
2023-05-16T16:33:34.557Z,47.24
2023-05-16T16:36:02.124Z,47.14
2023-05-16T16:38:29.977Z,47.44
2023-05-16T16:40:57.432Z,47.17
2023-05-16T16:43:25.372Z,47.28
2023-05-16T16:45:53.128Z,47.19
2023-05-16T16:48:20.931Z,47.22
2023-05-16T16:50:48.287Z,47.28
2023-05-16T16:53:15.829Z,47.19
2023-05-16T16:55:43.349Z,47.14
2023-05-16T16:58:11.045Z,47.11
2023-05-16T17:00:38.373Z,47.32
2023-05-16T17:03:06.409Z,47.38
2023-05-16T17:05:33.849Z,47.06
2023-05-16T17:08:01.619Z,47.05
2023-05-16T17:10:29.126Z,47.28
2023-05-16T17:13:02.824Z,47.22
2023-05-16T17:15:30.233Z,47.21
2023-05-16T17:17:57.920Z,47.26
2023-05-16T17:20:25.221Z,47.42
2023-05-16T17:22:53.087Z,47.33
2023-05-16T17:25:20.611Z,47.24
2023-05-16T17:27:48.200Z,47.30
2023-05-16T17:30:17.062Z,47.31
2023-05-16T17:32:46.236Z,47.34
2023-05-16T17:35:13.596Z,47.52
2023-05-16T17:37:42.283Z,47.41
2023-05-16T17:40:12.782Z,47.46
2023-05-16T17:42:40.542Z,47.46
2023-05-16T17:45:08.913Z,47.58
2023-05-16T17:47:36.449Z,47.34
2023-05-16T17:50:05.572Z,47.43
2023-05-16T17:52:34.948Z,47.59
2023-05-16T17:55:02.297Z,47.48
2023-05-16T17:57:30.465Z,47.69
2023-05-16T17:59:57.749Z,47.57
2023-05-16T18:02:25.590Z,47.50
2023-05-16T18:04:53.140Z,47.80
2023-05-16T18:07:20.715Z,47.39
2023-05-16T18:09:48.134Z,47.59
2023-05-16T18:12:15.891Z,47.61
2023-05-16T18:14:45.250Z,47.64
2023-05-16T18:17:13.444Z,47.74
2023-05-16T18:19:41.322Z,47.69
2023-05-16T18:22:10.116Z,47.74
2023-05-16T18:24:37.967Z,47.62
2023-05-16T18:27:05.846Z,47.74
2023-05-16T18:29:33.234Z,47.62
2023-05-16T18:32:00.879Z,47.75
2023-05-16T18:34:28.410Z,48.02
2023-05-16T18:36:56.456Z,48.25
2023-05-16T18:39:23.904Z,48.14
2023-05-16T18:41:51.674Z,48.31
2023-05-16T18:44:19.077Z,48.33
2023-05-16T18:46:47.059Z,48.83
2023-05-16T18:49:14.542Z,49.26
2023-05-16T18:51:42.259Z,49.17
2023-05-16T18:54:09.548Z,49.13
2023-05-16T18:56:37.432Z,49.58
2023-05-16T18:59:04.754Z,49.29
2023-05-16T19:01:32.705Z,49.35
2023-05-16T19:04:00.124Z,49.27
2023-05-16T19:06:27.796Z,49.43
2023-05-16T19:08:55.206Z,49.68
2023-05-16T19:11:22.816Z,49.50
2023-05-16T19:13:50.219Z,49.47
2023-05-16T19:16:17.943Z,49.32
2023-05-16T19:18:45.394Z,49.30
2023-05-16T19:21:13.660Z,49.52
2023-05-16T19:23:41.256Z,49.70
2023-05-16T19:26:09.102Z,49.46
2023-05-16T19:28:37.521Z,49.62
2023-05-16T19:31:05.306Z,49.54
2023-05-16T19:33:32.709Z,49.54
2023-05-16T19:36:01.034Z,49.53
2023-05-16T19:38:28.351Z,49.75
2023-05-16T19:40:56.491Z,49.83
2023-05-16T19:43:26.189Z,49.78
2023-05-16T19:45:53.765Z,49.88
2023-05-16T19:48:21.219Z,49.75
2023-05-16T19:50:48.824Z,49.69
2023-05-16T19:53:16.163Z,49.83
2023-05-16T19:55:43.810Z,49.83
2023-05-16T19:58:11.325Z,49.70
2023-05-16T20:00:39.179Z,49.80
2023-05-16T20:03:06.642Z,49.64
2023-05-16T20:05:34.376Z,49.80
2023-05-16T20:08:01.751Z,49.73
2023-05-16T20:10:29.372Z,49.92
2023-05-16T20:12:56.742Z,49.83
2023-05-16T20:15:24.938Z,49.55
2023-05-16T20:17:52.534Z,49.82
2023-05-16T20:20:20.325Z,49.80
2023-05-16T20:22:47.590Z,49.84
2023-05-16T20:25:15.205Z,50.08
2023-05-16T20:27:42.505Z,49.93
2023-05-16T20:30:10.745Z,50.36
2023-05-16T20:32:38.081Z,50.47
2023-05-16T20:35:09.080Z,50.40
2023-05-16T20:37:36.553Z,50.55
2023-05-16T20:40:06.047Z,50.44
2023-05-16T20:42:33.509Z,50.47
2023-05-16T20:45:01.459Z,50.56
2023-05-16T20:47:28.929Z,50.43
2023-05-16T20:49:56.572Z,50.45
2023-05-16T20:52:23.961Z,50.40
2023-05-16T20:54:51.486Z,50.52
2023-05-16T20:57:18.732Z,50.49
2023-05-16T20:59:46.550Z,50.74
2023-05-16T21:02:13.868Z,50.73
2023-05-16T21:04:41.618Z,50.76
2023-05-16T21:07:11.216Z,50.52
2023-05-16T21:09:39.701Z,50.73
2023-05-16T21:12:07.473Z,50.71
2023-05-16T21:14:35.076Z,50.65
2023-05-16T21:17:02.317Z,50.84
2023-05-16T21:19:34.063Z,50.91
2023-05-16T21:22:03.831Z,50.82
2023-05-16T21:24:35.282Z,50.39
2023-05-16T21:27:03.762Z,50.71
2023-05-16T21:29:31.675Z,50.62
2023-05-16T21:31:59.064Z,50.63
2023-05-16T21:34:26.841Z,50.74
2023-05-16T21:36:54.259Z,50.64
2023-05-16T21:39:21.930Z,50.66
2023-05-16T21:41:49.374Z,50.63
2023-05-16T21:44:18.440Z,50.59
2023-05-16T21:46:45.888Z,50.67
2023-05-16T21:49:14.134Z,50.57
2023-05-16T21:51:41.445Z,50.80
2023-05-16T21:54:09.014Z,50.75
2023-05-16T21:56:36.704Z,50.60
2023-05-16T21:59:04.237Z,50.61
2023-05-16T22:01:31.724Z,50.78
2023-05-16T22:03:59.525Z,50.58
2023-05-16T22:06:26.996Z,50.77
2023-05-16T22:08:55.166Z,50.70
2023-05-16T22:11:22.680Z,50.53
2023-05-16T22:13:51.263Z,50.48
2023-05-16T22:16:18.717Z,50.66
2023-05-16T22:18:46.402Z,50.78
2023-05-16T22:21:16.163Z,50.71
2023-05-16T22:23:43.728Z,50.92
2023-05-16T22:26:11.074Z,50.68
2023-05-16T22:28:38.600Z,50.58
2023-05-16T22:31:05.909Z,50.86
2023-05-16T22:33:33.554Z,50.70
2023-05-16T22:36:03.147Z,50.86
2023-05-16T22:38:31.695Z,50.49
2023-05-16T22:40:59.181Z,50.82
2023-05-16T22:43:26.678Z,50.68
2023-05-16T22:45:54.051Z,50.50
2023-05-16T22:48:21.603Z,50.53
2023-05-16T22:50:48.945Z,50.71
2023-05-16T22:53:16.638Z,50.68
2023-05-16T22:55:43.958Z,50.70
2023-05-16T22:58:11.896Z,50.59
2023-05-16T23:00:39.262Z,50.64
2023-05-16T23:03:06.973Z,50.85
2023-05-16T23:05:34.382Z,50.61
2023-05-16T23:08:03.194Z,50.87
2023-05-16T23:10:31.419Z,50.76
2023-05-16T23:12:58.978Z,50.71
2023-05-16T23:15:26.565Z,50.75
2023-05-16T23:17:54.315Z,50.89
2023-05-16T23:20:22.431Z,50.81
2023-05-16T23:22:49.994Z,50.78
2023-05-16T23:25:17.370Z,50.89
2023-05-16T23:27:44.915Z,50.83
2023-05-16T23:30:12.424Z,50.65
2023-05-16T23:32:40.142Z,50.79
2023-05-16T23:35:08.179Z,50.74
2023-05-16T23:37:36.030Z,50.82
2023-05-16T23:40:03.803Z,50.84
2023-05-16T23:42:31.352Z,50.83
2023-05-16T23:44:58.671Z,50.68
2023-05-16T23:47:26.511Z,50.70
2023-05-16T23:49:53.891Z,50.91
2023-05-16T23:52:21.423Z,50.89
2023-05-16T23:54:48.886Z,50.90
2023-05-16T23:57:17.999Z,50.95
2023-05-16T23:59:45.438Z,50.99
